首页
METAR-TAF:

METAR-TAF

机场 :

潘狄頓區域機場

Penticton, 不列颠哥伦比亚, 加拿大

纬度: 49-28N, 经度: 119-36W, 海拔: 344米

当前天气观测

该预报发布于58分钟前的23:00 UTC
风速11节,风向
温度 18°C
湿度 18%
气压 1016 hPa
能見度: 24.1公里
少量云层高于7000英尺
少量云层高于24000英尺

METAR: CYYF 072300Z 01011KT 15SM FEW070 FEW240 18/M07 A3001 RMK AC1CI2 AC TR SLP168 DENSITY ALT 1700FT

时间: 16:58 (23:58 UTC)

预报

该预报发布于5小时和20分钟前的18:38 UTC
预报有效从07日的 19点(UTC)到 08日的 07点(UTC)
风速5节,风向东北
能見度: 10公里
少量云层高于7000英尺
多云层高于25000英尺
成为
从 07日的 19点(UTC)到 07日的 21点(UTC)
风速12节,风向

TAF: CYYF 071838Z 0719/0807 04005KT P6SM FEW070 BKN250 BECMG 0719/0721 35012KT RMK NXT FCST BY 080100Z

超过4000个机场的气象观测和天气预报(METAR&TAF报告)。

可查询的气象台以黄色和红色小点在地图上表示。

将鼠标移到小点上方,可查看气象台名称。

然后点击查看天气观测和预报。

如需切换地图:点击带黑十字的绿色按钮放大地图;点击带横线的绿色按钮缩小地图;或者点击绿色箭头查看邻近地区的地图。


METAR-TAF: